createdAt,value
2019-03-10T00:01:34.198Z,6.55
2019-03-10T00:04:07.108Z,6.66
2019-03-10T00:06:38.090Z,6.85
2019-03-10T00:09:09.723Z,6.97
2019-03-10T00:11:40.431Z,7.21
2019-03-10T00:14:11.522Z,7.17
2019-03-10T00:16:42.178Z,7.20
2019-03-10T00:19:13.896Z,7.32
2019-03-10T00:21:44.658Z,7.36
2019-03-10T00:24:15.449Z,7.44
2019-03-10T00:26:45.884Z,7.40
2019-03-10T00:29:16.379Z,7.46
2019-03-10T00:31:46.853Z,7.50
2019-03-10T00:34:17.485Z,7.17
2019-03-10T09:24:58.016Z,5.96
2019-03-10T09:47:08.213Z,5.96
2019-03-10T09:50:04.111Z,5.96
2019-03-10T09:53:00.829Z,7.61
2019-03-10T09:55:45.903Z,7.79
2019-03-10T09:58:34.869Z,7.93
2019-03-10T10:01:38.042Z,7.99
2019-03-10T10:04:30.388Z,7.95
2019-03-10T10:07:34.897Z,7.84
2019-03-10T10:10:27.715Z,7.67
2019-03-10T10:13:16.501Z,7.73
2019-03-10T10:16:03.379Z,7.91
2019-03-10T10:18:48.513Z,8.08
2019-03-10T10:21:40.961Z,7.99
2019-03-10T10:24:30.528Z,8.27
2019-03-10T10:27:13.640Z,8.49
2019-03-10T10:30:01.944Z,8.48
2019-03-10T10:32:39.575Z,8.70
2019-03-10T10:35:27.795Z,8.58
2019-03-10T10:38:18.917Z,8.63
2019-03-10T10:41:10.446Z,8.81
2019-03-10T10:44:08.171Z,8.80
2019-03-10T10:47:09.692Z,8.61
2019-03-10T10:50:02.228Z,8.68
2019-03-10T10:52:50.099Z,8.46
2019-03-10T10:55:41.362Z,8.34
2019-03-10T10:58:39.212Z,8.53
2019-03-10T11:01:28.576Z,8.85
2019-03-10T11:04:24.907Z,8.71
2019-03-10T11:07:16.654Z,8.51
2019-03-10T11:09:56.914Z,8.84
2019-03-10T11:12:55.345Z,8.55
2019-03-10T11:15:48.119Z,8.71
2019-03-10T11:18:36.050Z,8.66
2019-03-10T11:21:15.815Z,8.54
2019-03-10T11:24:14.494Z,8.53
2019-03-10T11:27:06.567Z,8.50
2019-03-10T11:29:45.734Z,8.56
2019-03-10T11:32:24.844Z,8.62
2019-03-10T11:35:05.741Z,8.74
2019-03-10T11:38:04.699Z,8.74
2019-03-10T11:41:12.451Z,8.83
2019-03-10T11:43:51.926Z,8.86
2019-03-10T11:46:33.420Z,8.85
2019-03-10T11:49:28.940Z,8.98
2019-03-10T11:52:10.757Z,9.19
2019-03-10T11:55:06.431Z,9.10
2019-03-10T11:57:45.117Z,9.18
2019-03-10T12:00:25.823Z,9.07
2019-03-10T12:03:15.762Z,9.12
2019-03-10T12:06:08.054Z,9.18
2019-03-10T12:09:12.776Z,9.31
2019-03-10T12:11:43.239Z,9.16
2019-03-10T12:14:14.223Z,9.03
2019-03-10T12:17:16.036Z,9.36
2019-03-10T12:19:51.633Z,9.23
2019-03-10T12:22:24.409Z,9.47
2019-03-10T12:24:57.804Z,9.39
2019-03-10T12:27:29.645Z,9.33
2019-03-10T12:30:02.519Z,9.52
2019-03-10T12:32:34.263Z,9.33
2019-03-10T12:35:06.553Z,9.30
2019-03-10T12:37:38.411Z,9.48
2019-03-10T12:40:10.614Z,9.10
2019-03-10T12:42:42.337Z,9.12
2019-03-10T12:45:14.322Z,8.89
2019-03-10T12:47:46.018Z,8.74
2019-03-10T12:50:18.865Z,8.31
2019-03-10T12:52:50.559Z,8.29
2019-03-10T12:55:22.899Z,8.09
2019-03-10T12:57:54.601Z,7.90
2019-03-10T13:00:26.632Z,7.80
2019-03-10T13:02:58.282Z,7.74
2019-03-10T13:05:29.922Z,7.65
2019-03-10T13:08:01.620Z,7.52
2019-03-10T13:10:33.240Z,7.55
2019-03-10T13:13:06.146Z,7.32
2019-03-10T13:15:37.903Z,7.42
2019-03-10T13:18:09.775Z,7.47
2019-03-10T13:20:41.451Z,7.40
2019-03-10T13:23:13.213Z,7.32
2019-03-10T13:25:45.038Z,7.24
2019-03-10T13:28:17.130Z,7.38
2019-03-10T13:30:49.095Z,7.36
2019-03-10T13:33:20.917Z,7.26
2019-03-10T13:35:52.555Z,7.14
2019-03-10T13:38:24.354Z,7.22
2019-03-10T13:40:56.091Z,7.08
2019-03-10T13:43:27.737Z,6.94
2019-03-10T13:45:59.548Z,6.74
2019-03-10T13:48:31.310Z,6.54
2019-03-10T13:51:03.293Z,6.46
2019-03-10T13:53:35.023Z,6.44
2019-03-10T13:56:06.807Z,6.38
2019-03-10T13:58:38.678Z,6.36
2019-03-10T14:01:10.534Z,6.33
2019-03-10T14:03:42.672Z,6.27
2019-03-10T14:06:14.576Z,6.22
2019-03-10T14:08:46.328Z,6.27
2019-03-10T14:11:17.994Z,6.14
2019-03-10T14:13:49.727Z,6.18
2019-03-10T14:16:21.601Z,6.21
2019-03-10T14:18:53.309Z,6.35
2019-03-10T14:21:25.080Z,6.41
2019-03-10T14:23:56.845Z,6.46
2019-03-10T14:26:28.623Z,6.49
2019-03-10T14:29:00.334Z,6.54
2019-03-10T14:31:32.093Z,6.46
2019-03-10T14:34:03.829Z,6.44
2019-03-10T14:36:35.632Z,6.56
2019-03-10T14:39:08.835Z,6.56
2019-03-10T14:41:40.822Z,6.65
2019-03-10T14:44:12.414Z,6.75
2019-03-10T14:46:48.119Z,6.82
2019-03-10T14:49:23.480Z,6.91
2019-03-10T14:51:53.582Z,6.78
2019-03-10T14:54:25.747Z,6.78
2019-03-10T14:56:57.359Z,6.93
2019-03-10T14:59:29.054Z,6.93
2019-03-10T15:02:00.704Z,7.01
2019-03-10T15:04:32.471Z,7.00
2019-03-10T15:07:04.267Z,6.94
2019-03-10T15:09:35.942Z,6.94
2019-03-10T15:12:07.731Z,6.97
2019-03-10T15:14:39.357Z,6.92
2019-03-10T15:17:11.086Z,6.88
2019-03-10T15:19:43.695Z,6.97
2019-03-10T15:22:15.326Z,7.03
2019-03-10T15:24:47.199Z,7.07
2019-03-10T15:27:23.343Z,7.04
2019-03-10T15:29:52.287Z,7.09
2019-03-10T15:32:23.938Z,7.15
2019-03-10T15:34:55.717Z,7.13
2019-03-10T15:37:27.327Z,7.18
2019-03-10T15:39:58.978Z,7.17
2019-03-10T15:42:30.741Z,7.06
2019-03-10T15:45:02.530Z,7.07
2019-03-10T15:47:35.207Z,7.12
2019-03-10T15:50:10.913Z,7.06
2019-03-10T15:52:42.542Z,7.06
2019-03-10T15:55:14.457Z,7.04
2019-03-10T15:57:50.651Z,7.04
2019-03-10T16:00:20.571Z,7.07
2019-03-10T16:02:52.389Z,7.07
2019-03-10T16:05:24.120Z,7.09
2019-03-10T16:07:55.854Z,7.04
2019-03-10T16:10:27.436Z,7.06
2019-03-10T16:12:59.187Z,7.03
2019-03-10T16:15:30.857Z,7.07
2019-03-10T16:18:02.827Z,7.06
2019-03-10T16:20:34.779Z,7.03
2019-03-10T16:23:06.929Z,7.00
2019-03-10T16:25:38.654Z,7.05
2019-03-10T16:28:10.573Z,7.01
2019-03-10T16:30:42.284Z,7.04
2019-03-10T16:33:14.441Z,7.09
2019-03-10T16:35:46.245Z,7.11
2019-03-10T16:38:18.097Z,7.12
2019-03-10T16:40:50.092Z,7.16
2019-03-10T16:43:22.023Z,7.15
2019-03-10T16:45:53.677Z,7.17
2019-03-10T16:48:26.012Z,7.17
2019-03-10T16:50:57.874Z,7.19
2019-03-10T16:53:29.502Z,7.11
2019-03-10T16:56:03.120Z,7.14
2019-03-10T16:58:34.637Z,7.07
2019-03-10T17:01:07.465Z,7.10
2019-03-10T17:03:39.326Z,7.16
2019-03-10T17:06:11.461Z,7.10
2019-03-10T17:08:43.219Z,7.09
2019-03-10T17:11:16.352Z,7.12
2019-03-10T17:13:48.006Z,7.14
2019-03-10T17:16:20.885Z,7.11
2019-03-10T17:18:52.475Z,7.09
2019-03-10T17:21:24.252Z,7.06
2019-03-10T17:23:56.052Z,7.06
2019-03-10T17:26:28.876Z,7.04
2019-03-10T17:29:01.180Z,7.04
2019-03-10T17:31:32.829Z,7.06
2019-03-10T17:34:04.587Z,7.09
2019-03-10T17:36:36.335Z,7.12
2019-03-10T17:39:08.433Z,7.09
2019-03-10T17:41:40.195Z,7.13
2019-03-10T17:44:12.923Z,7.19
2019-03-10T17:46:44.808Z,7.18
2019-03-10T17:49:16.481Z,7.20
2019-03-10T17:51:48.554Z,7.25
2019-03-10T17:54:20.214Z,7.28
2019-03-10T17:56:51.914Z,7.30
2019-03-10T17:59:23.787Z,7.37
2019-03-10T18:01:55.407Z,7.37
2019-03-10T18:04:27.121Z,7.40
2019-03-10T18:06:58.781Z,7.43
2019-03-10T18:09:30.731Z,7.41
2019-03-10T18:12:02.719Z,7.55
2019-03-10T18:14:34.442Z,7.60
2019-03-10T18:17:06.063Z,7.65
2019-03-10T18:19:37.762Z,7.68
2019-03-10T18:22:09.357Z,7.64
2019-03-10T18:24:48.570Z,7.64
2019-03-10T18:27:20.260Z,7.70
2019-03-10T18:29:53.719Z,7.79
2019-03-10T18:32:25.456Z,7.91
2019-03-10T18:34:57.099Z,7.95
2019-03-10T18:37:32.831Z,7.96
2019-03-10T18:40:03.204Z,7.98
2019-03-10T18:42:35.169Z,8.04
2019-03-10T18:45:07.648Z,8.01
2019-03-10T18:47:39.618Z,8.08
2019-03-10T18:50:12.507Z,8.10
2019-03-10T18:52:44.195Z,8.17
2019-03-10T18:55:16.703Z,8.29
2019-03-10T18:57:49.486Z,8.40
2019-03-10T19:00:22.611Z,8.48
2019-03-10T19:02:54.192Z,8.53
2019-03-10T19:05:26.055Z,8.60
2019-03-10T19:07:57.898Z,8.62
2019-03-10T19:10:29.516Z,8.63
2019-03-10T19:13:01.202Z,8.63
2019-03-10T19:15:32.909Z,8.64
2019-03-10T19:18:04.505Z,8.59
2019-03-10T19:20:36.264Z,8.56
2019-03-10T19:23:07.982Z,8.56
2019-03-10T19:25:39.959Z,8.49
2019-03-10T19:28:11.852Z,8.42
2019-03-10T19:30:43.812Z,8.38
2019-03-10T19:33:15.601Z,8.33
2019-03-10T19:35:47.338Z,8.32
2019-03-10T19:38:19.244Z,8.29
2019-03-10T19:40:51.117Z,8.26
2019-03-10T19:43:22.935Z,8.24
2019-03-10T19:45:55.050Z,8.25
2019-03-10T19:48:27.112Z,8.23
2019-03-10T19:50:58.868Z,8.24
2019-03-10T19:53:30.634Z,8.25
2019-03-10T19:56:04.128Z,8.22
2019-03-10T19:58:37.013Z,8.20
2019-03-10T20:01:08.857Z,8.18
2019-03-10T20:03:40.596Z,8.15
2019-03-10T20:06:12.553Z,8.11
2019-03-10T20:08:44.962Z,8.04
2019-03-10T20:11:16.758Z,8.03
2019-03-10T20:13:48.607Z,8.00
2019-03-10T20:16:20.402Z,8.01
2019-03-10T20:18:52.259Z,8.06
2019-03-10T20:21:24.321Z,8.09
2019-03-10T20:23:56.042Z,8.09
2019-03-10T20:26:27.846Z,8.05
2019-03-10T20:29:00.129Z,8.08
2019-03-10T20:31:31.887Z,8.08
2019-03-10T20:34:03.842Z,8.06
2019-03-10T20:36:37.942Z,8.06
2019-03-10T20:39:10.965Z,8.05
2019-03-10T20:41:43.256Z,8.06
2019-03-10T20:44:15.155Z,8.07
2019-03-10T20:46:47.340Z,8.10
2019-03-10T20:49:19.240Z,8.13
2019-03-10T20:51:51.178Z,8.15
2019-03-10T20:54:23.015Z,8.17
2019-03-10T20:56:56.344Z,8.20
2019-03-10T20:59:30.042Z,8.23
2019-03-10T21:02:03.511Z,8.28
2019-03-10T21:04:35.959Z,8.31
2019-03-10T21:07:10.125Z,8.35
2019-03-10T21:09:44.598Z,8.37
2019-03-10T21:12:18.066Z,8.40
2019-03-10T21:14:50.880Z,8.41
2019-03-10T21:17:23.018Z,8.40
2019-03-10T21:19:55.085Z,8.34
2019-03-10T21:22:28.781Z,8.11
2019-03-10T21:25:03.067Z,8.11
2019-03-10T21:27:35.190Z,8.01
2019-03-10T21:30:13.326Z,7.97
2019-03-10T21:32:45.796Z,7.87
2019-03-10T21:35:18.617Z,7.75
2019-03-10T21:37:52.009Z,7.70
2019-03-10T21:40:25.143Z,7.67
2019-03-10T21:42:56.915Z,7.67
2019-03-10T21:45:28.557Z,7.63
2019-03-10T21:48:00.412Z,7.68
2019-03-10T21:50:32.360Z,7.64
2019-03-10T21:53:04.156Z,7.62
2019-03-10T21:55:35.940Z,7.61
2019-03-10T21:58:07.789Z,7.35
2019-03-10T22:00:39.530Z,7.27
2019-03-10T22:03:12.484Z,7.27
2019-03-10T22:05:44.292Z,7.38
2019-03-10T22:08:16.192Z,7.32
2019-03-10T22:10:47.972Z,7.38
2019-03-10T22:13:19.577Z,7.43
2019-03-10T22:15:51.196Z,7.51
2019-03-10T22:18:23.023Z,7.56
2019-03-10T22:20:54.721Z,7.61
2019-03-10T22:23:26.453Z,7.68
2019-03-10T22:25:58.150Z,7.71
2019-03-10T22:28:30.108Z,7.73
2019-03-10T22:31:01.832Z,7.84
2019-03-10T22:33:33.558Z,7.84
2019-03-10T22:36:06.113Z,7.89
2019-03-10T22:38:37.687Z,7.91
2019-03-10T22:41:10.963Z,7.95
2019-03-10T22:43:42.701Z,8.03
2019-03-10T22:46:16.909Z,8.02
2019-03-10T22:48:48.842Z,8.11
2019-03-10T22:51:22.216Z,8.30
2019-03-10T22:53:54.366Z,8.28
2019-03-10T22:56:26.279Z,8.29
2019-03-10T22:58:58.061Z,8.35
2019-03-10T23:01:30.147Z,8.45
2019-03-10T23:04:03.041Z,8.43
2019-03-10T23:06:35.195Z,8.37
2019-03-10T23:09:08.349Z,8.33
2019-03-10T23:11:41.844Z,8.28
2019-03-10T23:14:15.542Z,8.16
2019-03-10T23:16:47.698Z,8.14
2019-03-10T23:19:19.487Z,8.06
2019-03-10T23:21:51.077Z,7.94
2019-03-10T23:24:24.383Z,7.92
2019-03-10T23:26:56.158Z,7.85
2019-03-10T23:29:28.712Z,7.84
2019-03-10T23:32:00.656Z,7.87
2019-03-10T23:34:32.348Z,7.86
2019-03-10T23:37:05.089Z,7.77
2019-03-10T23:39:37.011Z,7.76
2019-03-10T23:42:08.695Z,7.76
2019-03-10T23:44:41.613Z,7.77
2019-03-10T23:47:13.900Z,7.74
2019-03-10T23:49:45.800Z,7.72
2019-03-10T23:52:18.107Z,7.76
2019-03-10T23:54:49.942Z,7.75
2019-03-10T23:57:21.605Z,7.70
2019-03-10T23:59:53.399Z,7.62
